Time;durP1;ratioP1;P1;durP2;ratioP2;P2;SDS_P1;SDS_P2;PMS_P1;PMS_P2;Temp;Humidity;BMP_temperature;BMP_pressure;BME280_temperature;BME280_humidity;BME280_pressure;Samples;Min_cycle;Max_cycle;Signal;HPM_P1;HPM_P2
2022/12/08 00:02:56;;;;;;;29.70;17.95;;;;;;;4.66;57.70;100503.27;1785803;80;22768;-76
2022/12/08 00:09:36;;;;;;;26.10;15.32;;;;;;;4.73;58.09;100503.97;1785949;80;21185;-77
2022/12/08 00:12:42;;;;;;;34.80;15.95;;;;;;;4.38;58.33;100503.47;1785829;80;21570;-77
2022/12/08 00:15:47;;;;;;;31.55;16.52;;;;;;;4.62;57.91;100497.28;1784909;80;21714;-76
2022/12/08 00:18:53;;;;;;;32.17;16.95;;;;;;;4.46;58.80;100494.17;1785921;80;21814;-77
2022/12/08 00:21:59;;;;;;;31.48;17.50;;;;;;;4.26;59.73;100493.19;1784369;80;21188;-77
2022/12/08 00:25:04;;;;;;;27.22;16.90;;;;;;;4.12;60.07;100491.65;1784350;80;21221;-77
2022/12/08 00:28:11;;;;;;;26.25;17.10;;;;;;;4.04;60.35;100486.02;1785804;80;21727;-77
2022/12/08 00:31:17;;;;;;;28.70;15.80;;;;;;;4.06;60.75;100475.94;1785866;80;21177;-77
2022/12/08 00:34:22;;;;;;;28.35;16.55;;;;;;;4.24;60.66;100482.99;1786052;80;21288;-77
2022/12/08 00:37:28;;;;;;;35.35;18.55;;;;;;;4.11;61.13;100476.41;1786034;80;21270;-77
2022/12/08 00:40:34;;;;;;;29.50;17.73;;;;;;;3.91;61.80;100472.69;1785786;80;21276;-77
2022/12/08 00:43:40;;;;;;;30.35;19.30;;;;;;;4.03;61.69;100468.07;1785293;80;21750;-77
2022/12/08 00:46:46;;;;;;;30.12;15.60;;;;;;;4.19;61.07;100477.09;1784419;80;21263;-77
2022/12/08 00:49:52;;;;;;;42.13;25.45;;;;;;;4.18;60.68;100478.94;1784491;80;21204;-77
2022/12/08 00:52:58;;;;;;;28.50;16.85;;;;;;;4.57;59.93;100483.28;1785845;80;21735;-77
2022/12/08 00:56:04;;;;;;;28.95;17.55;;;;;;;4.32;60.49;100488.09;1785129;80;21225;-77
2022/12/08 00:59:12;;;;;;;29.60;16.60;;;;;;;4.77;59.88;100495.94;1753768;82;21195;-77
2022/12/08 01:02:17;;;;;;;25.20;14.87;;;;;;;4.82;58.98;100497.74;1755457;81;21845;-77
2022/12/08 01:05:24;;;;;;;29.07;14.05;;;;;;;4.86;58.90;100513.24;1755015;82;21215;-77
2022/12/08 01:08:31;;;;;;;28.00;15.25;;;;;;;5.22;57.85;100515.03;1755127;81;21186;-77
2022/12/08 01:11:36;;;;;;;33.40;15.95;;;;;;;4.83;58.63;100514.36;1754658;82;21777;-77
2022/12/08 01:14:43;;;;;;;32.17;17.40;;;;;;;4.88;58.88;100510.74;1754996;82;21234;-76
2022/12/08 01:17:49;;;;;;;39.73;15.68;;;;;;;4.66;59.25;100503.27;1755071;82;21237;-76
2022/12/08 01:20:55;;;;;;;30.92;18.37;;;;;;;4.81;58.98;100482.98;1754845;82;21167;-77
2022/12/08 01:24:02;;;;;;;32.53;17.30;;;;;;;4.40;60.40;100482.52;1754590;82;21250;-76
2022/12/08 01:27:07;;;;;;;31.93;17.40;;;;;;;4.41;60.20;100488.30;1753385;82;21239;-76
2022/12/08 01:30:15;;;;;;;28.30;16.50;;;;;;;4.52;60.33;100488.24;1754589;82;21254;-77
2022/12/08 01:33:21;;;;;;;31.73;16.82;;;;;;;4.63;60.24;100487.30;1754671;82;21183;-76
2022/12/08 04:17:34;;;;;;;66.62;32.33;;;;;;;3.92;82.41;100477.11;1820818;76;28116;-81
2022/12/08 04:20:40;;;;;;;71.45;33.60;;;;;;;4.28;80.25;100478.53;1781672;79;21657;-80
2022/12/08 04:23:45;;;;;;;70.65;33.88;;;;;;;3.97;80.24;100479.42;1781667;80;21212;-82
2022/12/08 04:26:52;;;;;;;79.42;37.40;;;;;;;4.03;79.62;100473.48;1780403;79;21732;-83
2022/12/08 04:29:58;;;;;;;85.17;39.78;;;;;;;3.70;80.29;100475.34;1781786;80;21153;-82
2022/12/08 04:33:05;;;;;;;86.97;39.95;;;;;;;3.91;80.16;100479.95;1781858;80;21192;-82
2022/12/08 04:36:12;;;;;;;83.52;40.73;;;;;;;3.98;80.06;100479.28;1781152;79;21215;-79
2022/12/08 04:39:18;;;;;;;94.30;42.25;;;;;;;4.22;79.09;100488.52;1780341;80;21224;-78
2022/12/08 04:42:23;;;;;;;83.05;41.08;;;;;;;4.16;78.98;100489.05;1780491;79;21184;-82
2022/12/08 04:45:30;;;;;;;97.65;42.83;;;;;;;4.13;79.24;100492.01;1781573;79;21811;-79
2022/12/08 04:48:36;;;;;;;89.90;41.58;;;;;;;4.11;78.25;100489.94;1781847;80;21197;-82
2022/12/08 04:51:42;;;;;;;98.42;43.35;;;;;;;3.90;79.14;100483.63;1781469;79;21227;-79
2022/12/08 04:54:47;;;;;;;83.30;35.83;;;;;;;4.63;77.45;100493.58;1782118;80;21153;-82
2022/12/08 04:57:54;;;;;;;69.97;31.68;;;;;;;4.16;78.42;100499.02;1782023;80;21200;-79
2022/12/08 05:01:01;;;;;;;78.42;33.65;;;;;;;4.22;78.21;100503.41;1780662;79;21713;-79
2022/12/08 05:04:07;;;;;;;74.50;32.00;;;;;;;4.80;76.84;100507.02;1782111;80;21159;-82
2022/12/08 05:07:13;;;;;;;55.88;27.35;;;;;;;4.35;77.51;100501.87;1780787;79;21200;-81
2022/12/08 05:10:19;;;;;;;58.40;26.90;;;;;;;4.43;77.82;100508.00;1782040;80;21744;-81
2022/12/08 05:13:27;;;;;;;57.55;25.65;;;;;;;4.30;77.95;100502.27;1782027;80;21200;-82
2022/12/08 05:16:33;;;;;;;49.33;24.50;;;;;;;4.40;77.69;100515.02;1783045;79;21200;-83
2022/12/08 05:19:40;;;;;;;48.25;24.65;;;;;;;4.03;78.67;100519.00;1792905;80;21673;-80
2022/12/08 05:22:46;;;;;;;41.85;22.55;;;;;;;4.38;77.67;100528.70;1791212;79;21172;-80
2022/12/08 05:25:51;;;;;;;50.63;22.62;;;;;;;4.71;76.60;100524.08;1792611;79;21234;-82
2022/12/08 05:28:57;;;;;;;47.53;23.07;;;;;;;4.63;76.24;100526.09;1792595;80;21152;-79
2022/12/08 05:32:03;;;;;;;49.10;22.13;;;;;;;4.29;78.11;100534.41;1792413;79;21160;-80
2022/12/08 05:35:09;;;;;;;53.38;21.80;;;;;;;4.79;76.65;100532.37;1792799;80;21196;-83
2022/12/08 05:38:13;;;;;;;53.50;23.80;;;;;;;4.74;76.27;100531.42;1792208;80;21156;-82
2022/12/08 05:41:22;;;;;;;51.85;23.00;;;;;;;4.66;76.39;100535.78;1791926;78;21196;-80
2022/12/08 05:44:27;;;;;;;41.73;19.85;;;;;;;4.36;77.11;100537.44;1792006;80;21183;-81
2022/12/08 05:47:33;;;;;;;45.58;22.40;;;;;;;4.06;78.56;100542.27;1790827;80;21227;-82
2022/12/08 05:50:38;;;;;;;51.25;23.27;;;;;;;4.12;78.62;100543.09;1792255;80;21160;-78
2022/12/08 05:53:44;;;;;;;52.85;22.73;;;;;;;4.55;76.94;100543.49;1792137;80;21148;-78
2022/12/08 05:56:50;;;;;;;53.63;22.58;;;;;;;4.30;77.50;100540.67;1792041;80;21315;-78
2022/12/08 05:59:58;;;;;;;50.38;23.50;;;;;;;4.58;76.46;100540.03;1792255;80;21161;-79
2022/12/08 06:03:04;;;;;;;52.67;23.38;;;;;;;4.12;77.96;100543.09;1792018;80;21798;-82
2022/12/08 06:06:11;;;;;;;52.58;23.67;;;;;;;4.24;77.58;100542.06;1759496;80;21188;-83
2022/12/08 06:09:16;;;;;;;49.83;22.70;;;;;;;4.03;78.43;100552.84;1751688;81;21155;-78
2022/12/08 06:12:23;;;;;;;51.28;23.05;;;;;;;4.03;78.61;100554.19;1771093;80;21164;-83
2022/12/08 06:15:29;;;;;;;59.27;23.10;;;;;;;4.32;77.93;100550.38;1791121;80;21140;-83
2022/12/08 06:18:34;;;;;;;46.50;21.93;;;;;;;4.18;78.01;100542.56;1770288;80;21462;-79
2022/12/08 06:21:39;;;;;;;51.25;21.60;;;;;;;4.18;77.72;100545.27;1786745;79;21218;-82
2022/12/08 06:24:46;;;;;;;48.48;22.10;;;;;;;4.44;77.08;100540.36;1776630;80;21160;-83
2022/12/08 06:27:54;;;;;;;54.03;23.60;;;;;;;4.54;76.64;100543.99;1785031;80;21216;-79
2022/12/08 06:31:01;;;;;;;48.68;23.45;;;;;;;4.59;76.33;100538.17;1784371;78;21155;-79
2022/12/08 06:34:06;;;;;;;45.45;23.73;;;;;;;4.92;74.99;100539.80;1789659;80;21191;-79
2022/12/08 06:37:11;;;;;;;56.58;23.90;;;;;;;5.19;74.39;100546.01;1752352;81;21767;-78
2022/12/08 06:40:19;;;;;;;49.80;22.77;;;;;;;5.09;74.16;100547.82;1756484;81;21215;-79
2022/12/08 06:43:25;;;;;;;52.10;23.70;;;;;;;5.25;73.75;100547.31;1710717;81;21247;-79
2022/12/08 06:46:32;;;;;;;61.85;26.02;;;;;;;5.03;74.03;100546.98;1721180;82;21180;-78
2022/12/08 06:49:37;;;;;;;58.60;25.45;;;;;;;4.98;74.70;100551.45;1739617;81;21208;-78
2022/12/08 06:52:42;;;;;;;60.15;29.00;;;;;;;4.83;75.38;100563.14;1737878;82;21721;-79
2022/12/08 06:56:00;;;;;;;47.78;24.80;;;;;;;4.82;75.66;100560.08;1718107;82;21204;-79
2022/12/08 06:59:05;;;;;;;57.58;27.75;;;;;;;5.02;75.24;100554.77;1732373;82;21180;-79
2022/12/08 07:02:12;;;;;;;51.83;24.40;;;;;;;4.87;75.12;100564.59;1736377;82;21175;-80
2022/12/08 21:20:48;;;;;;;69.45;38.10;;;;;;;4.01;100.00;100464.65;1892267;75;22153;-79
2022/12/08 21:23:53;;;;;;;81.63;39.95;;;;;;;4.26;100.00;100468.31;1845267;76;21168;-76
2022/12/08 21:26:59;;;;;;;72.95;36.35;;;;;;;4.09;100.00;100466.19;1855018;77;21145;-77
2022/12/08 21:30:06;;;;;;;67.62;36.40;;;;;;;4.26;100.00;100465.61;1853876;77;21164;-76
2022/12/08 21:33:07;;;;;;;66.28;35.28;;;;;;;4.51;100.00;100455.34;1855109;77;21133;-76
2022/12/08 21:36:18;;;;;;;89.30;43.20;;;;;;;4.71;100.00;100465.82;1844916;76;21216;-77
2022/12/08 21:39:24;;;;;;;82.40;41.40;;;;;;;4.61;100.00;100462.56;1838904;76;21200;-77
2022/12/08 21:42:44;;;;;;;91.92;39.92;;;;;;;4.73;100.00;100466.03;1842586;76;22378;-78
2022/12/08 21:45:48;;;;;;;;;;;;;;;4.66;100.00;100471.64;1861906;76;21112;-78
2022/12/08 21:48:53;;;;;;;69.72;36.33;;;;;;;4.60;100.00;100461.31;1856210;76;20179;-78
2022/12/08 21:51:58;;;;;;;76.77;39.92;;;;;;;4.68;100.00;100471.00;1853386;76;21163;-77
2022/12/08 21:55:04;;;;;;;89.87;41.85;;;;;;;4.58;100.00;100471.45;1857511;76;21190;-76
2022/12/08 21:58:10;;;;;;;74.67;35.50;;;;;;;4.62;100.00;100463.41;1790331;79;21195;-77
2022/12/08 22:01:17;;;;;;;60.03;28.73;;;;;;;4.30;100.00;100475.19;1796716;79;21149;-80
2022/12/08 22:04:25;;;;;;;50.25;25.90;;;;;;;4.24;100.00;100477.58;1801394;79;21701;-79
2022/12/08 22:07:32;;;;;;;41.10;21.30;;;;;;;4.37;100.00;100476.86;1793895;79;21164;-79
2022/12/08 22:10:39;;;;;;;38.02;20.23;;;;;;;4.46;100.00;100480.13;1804565;79;21180;-76
2022/12/08 22:13:47;;;;;;;39.78;19.92;;;;;;;4.58;100.00;100474.16;1808526;78;21776;-75
2022/12/08 22:16:53;;;;;;;35.83;19.77;;;;;;;4.41;100.00;100467.98;1797913;78;21124;-79
2022/12/08 22:19:59;;;;;;;39.13;20.10;;;;;;;4.60;100.00;100465.38;1803959;78;21168;-79
2022/12/08 22:23:04;;;;;;;31.73;18.67;;;;;;;4.55;100.00;100468.99;1802605;79;21180;-75
2022/12/08 22:26:09;;;;;;;37.53;19.07;;;;;;;4.59;100.00;100469.09;1813762;78;21129;-79
2022/12/08 22:29:15;;;;;;;38.05;20.00;;;;;;;4.70;100.00;100460.02;1803869;78;21180;-75
2022/12/08 22:32:20;;;;;;;35.65;19.30;;;;;;;4.71;100.00;100454.48;1805628;78;21116;-79
2022/12/08 22:35:26;;;;;;;38.20;20.52;;;;;;;4.79;100.00;100452.42;1801428;79;21149;-76
2022/12/08 22:38:32;;;;;;;38.55;19.67;;;;;;;4.76;100.00;100452.22;1806524;78;21681;-79
2022/12/08 22:41:38;;;;;;;37.55;20.00;;;;;;;4.85;100.00;100451.41;1805140;79;21164;-79
2022/12/08 22:44:37;;;;;;;39.65;20.68;;;;;;;4.74;100.00;100446.06;1750475;79;48080;-76
2022/12/08 22:47:42;;;;;;;39.05;19.75;;;;;;;4.93;100.00;100447.14;1750747;82;21159;-79
2022/12/08 22:50:47;;;;;;;37.38;20.57;;;;;;;4.85;100.00;100444.63;1751735;81;21544;-76
2022/12/08 22:53:53;;;;;;;39.48;20.80;;;;;;;5.20;100.00;100433.81;1753131;81;21156;-75
2022/12/08 22:56:59;;;;;;;38.15;22.20;;;;;;;5.39;98.30;100433.86;1747404;81;21701;-80
2022/12/08 23:00:05;;;;;;;36.98;20.57;;;;;;;5.33;98.29;100427.64;1785030;80;21182;-76
2022/12/08 23:03:11;;;;;;;44.50;24.05;;;;;;;5.53;97.89;100426.31;1742963;81;21689;-79
2022/12/08 23:06:20;;;;;;;47.45;23.42;;;;;;;4.96;99.82;100428.75;1736213;81;21729;-76
2022/12/08 23:09:26;;;;;;;44.37;21.10;;;;;;;5.47;97.50;100418.75;1738865;81;21187;-80
2022/12/08 23:12:32;;;;;;;44.65;23.10;;;;;;;5.31;98.23;100403.00;1783174;80;21673;-80
2022/12/08 23:15:38;;;;;;;43.40;22.58;;;;;;;5.33;98.37;100414.08;1763888;81;21147;-76
2022/12/08 23:18:43;;;;;;;44.03;22.00;;;;;;;5.17;99.52;100399.34;1754254;81;21164;-79
2022/12/08 23:21:50;;;;;;;40.23;23.75;;;;;;;4.91;99.23;100401.20;1746776;81;21208;-75
2022/12/08 23:24:55;;;;;;;37.17;22.27;;;;;;;5.29;99.86;100397.73;1754652;81;21159;-76
2022/12/08 23:27:59;;;;;;;39.58;23.50;;;;;;;5.30;99.28;100406.72;1744539;81;21160;-77
2022/12/08 23:30:59;;;;;;;42.58;21.62;;;;;;;5.63;98.48;100414.46;1761522;81;21127;-77
2022/12/08 23:33:51;;;;;;;42.23;23.47;;;;;;;5.67;98.24;100427.25;1759252;81;21132;-76
2022/12/08 23:36:56;;;;;;;44.97;27.53;;;;;;;5.23;99.53;100419.14;1751821;81;21175;-75
2022/12/08 23:40:02;;;;;;;37.58;19.73;;;;;;;5.46;99.69;100419.25;1757835;81;21175;-75
2022/12/08 23:43:08;;;;;;;30.08;15.60;;;;;;;5.35;100.00;100428.35;1746210;81;21152;-75
2022/12/08 23:46:14;;;;;;;31.25;17.92;;;;;;;5.26;100.00;100440.03;1736952;81;25268;-79
2022/12/08 23:49:22;;;;;;;36.53;18.85;;;;;;;5.41;100.00;100434.20;1738330;81;21164;-80
2022/12/08 23:52:27;;;;;;;40.88;22.13;;;;;;;5.64;99.63;100426.17;1685188;84;21739;-76
2022/12/08 23:55:34;;;;;;;37.45;20.12;;;;;;;5.64;98.07;100426.17;1732996;81;21165;-75
2022/12/08 23:58:40;;;;;;;29.63;16.50;;;;;;;5.75;98.50;100441.48;1737133;81;21200;-75
